Time;durP1;ratioP1;P1;durP2;ratioP2;P2;SDS_P1;SDS_P2;PMS_P1;PMS_P2;Temp;Humidity;BMP_temperature;BMP_pressure;BME280_temperature;BME280_humidity;BME280_pressure;Samples;Min_cycle;Max_cycle;Signal;HPM_P1;HPM_P2
2023/12/24 00:01:44;;;;;;;1999.90;999.90;;;10.60;99.90;;;;;;5026541;28;20026;-72
2023/12/24 00:04:11;;;;;;;1999.90;999.90;;;10.70;99.90;;;;;;5027249;28;20168;-70
2023/12/24 00:06:37;;;;;;;1999.90;999.90;;;10.60;99.90;;;;;;5028807;28;20037;-70
2023/12/24 00:09:02;;;;;;;1999.90;999.90;;;10.60;99.90;;;;;;5025851;28;20034;-71
2023/12/24 00:11:29;;;;;;;1999.90;999.90;;;10.60;99.90;;;;;;5025473;28;20038;-71
2023/12/24 00:13:55;;;;;;;;;;;10.60;99.90;;;;;;5023356;28;20370;-71
2023/12/24 00:16:21;;;;;;;1999.90;999.90;;;10.60;99.90;;;;;;5027018;28;19909;-70
2023/12/24 00:18:46;;;;;;;1999.90;999.90;;;10.60;99.90;;;;;;5028063;28;20501;-71
2023/12/24 00:21:13;;;;;;;1999.90;999.90;;;10.70;99.90;;;;;;5024749;28;20108;-70
2023/12/24 00:23:39;;;;;;;1999.90;999.90;;;10.60;99.90;;;;;;5026591;28;20052;-71
2023/12/24 00:26:05;;;;;;;1999.90;999.90;;;10.60;99.90;;;;;;5028539;28;20034;-71
2023/12/24 00:28:30;;;;;;;1999.90;999.90;;;10.60;99.90;;;;;;5023698;28;20033;-71
2023/12/24 00:30:56;;;;;;;1999.90;999.90;;;10.60;99.90;;;;;;5030754;28;20034;-71
2023/12/24 00:33:22;;;;;;;1999.90;999.90;;;10.60;99.90;;;;;;5042145;28;20118;-71
2023/12/24 00:35:48;;;;;;;1999.90;999.90;;;10.60;99.90;;;;;;5036056;28;20028;-73
2023/12/24 00:38:13;;;;;;;1999.90;999.90;;;10.60;99.90;;;;;;5034127;28;20525;-71
2023/12/24 00:40:39;;;;;;;1999.90;999.90;;;10.60;99.90;;;;;;5028517;28;20053;-71
2023/12/24 00:43:05;;;;;;;1999.90;999.90;;;10.50;99.90;;;;;;5040922;28;20502;-71
2023/12/24 00:45:31;;;;;;;1999.90;999.90;;;10.40;99.90;;;;;;5031943;28;20013;-72
2023/12/24 00:47:57;;;;;;;1999.90;999.90;;;10.40;99.90;;;;;;5034271;28;20072;-71
2023/12/24 00:50:23;;;;;;;1999.90;999.90;;;10.40;99.90;;;;;;5036050;28;20036;-71
2023/12/24 00:52:49;;;;;;;1999.90;999.90;;;10.30;99.90;;;;;;5028075;28;20040;-71
2023/12/24 00:55:15;;;;;;;1999.90;999.90;;;10.30;99.90;;;;;;5030398;28;20037;-71
2023/12/24 00:57:41;;;;;;;1999.90;999.90;;;10.20;99.90;;;;;;5035530;28;20108;-71
2023/12/24 01:00:08;;;;;;;1999.90;999.90;;;10.20;99.90;;;;;;5030751;28;20079;-71
2023/12/24 01:02:34;;;;;;;1999.90;999.90;;;10.20;99.90;;;;;;5026022;28;20029;-72
2023/12/24 01:05:00;;;;;;;;;;;10.20;99.90;;;;;;5041819;28;20033;-71
2023/12/24 01:07:26;;;;;;;1999.90;999.90;;;10.20;99.90;;;;;;5039716;28;20223;-71
2023/12/24 01:09:51;;;;;;;1999.90;999.90;;;10.20;99.90;;;;;;5041201;28;20484;-71
2023/12/24 01:12:17;;;;;;;1999.90;999.90;;;10.10;99.90;;;;;;5035051;28;20033;-71
2023/12/24 01:14:43;;;;;;;1999.90;999.90;;;10.10;99.90;;;;;;5036822;28;20687;-71
2023/12/24 01:17:09;;;;;;;1999.90;999.90;;;10.10;99.90;;;;;;5032049;28;20100;-71
2023/12/24 01:19:35;;;;;;;1999.90;999.90;;;10.00;99.90;;;;;;5036199;28;20339;-72
2023/12/24 01:22:00;;;;;;;1999.90;999.90;;;10.00;99.90;;;;;;5027747;28;20092;-70
2023/12/24 01:24:26;;;;;;;1999.90;999.90;;;10.00;99.90;;;;;;5030000;28;20084;-71
2023/12/24 01:26:52;;;;;;;1999.90;999.90;;;10.00;99.90;;;;;;5034759;28;20064;-71
2023/12/24 01:29:17;;;;;;;1999.90;999.90;;;10.00;99.90;;;;;;5029046;28;20112;-71
2023/12/24 01:31:43;;;;;;;1999.90;999.90;;;10.00;99.90;;;;;;5033321;28;20068;-71
2023/12/24 01:34:09;;;;;;;1999.90;999.90;;;10.00;99.90;;;;;;5034765;28;20025;-71
2023/12/24 01:36:39;;;;;;;1999.90;999.90;;;10.00;99.90;;;;;;5033865;28;20416;-70
2023/12/24 01:39:05;;;;;;;1999.90;999.90;;;10.00;99.90;;;;;;5033840;28;20072;-70
2023/12/24 01:41:31;;;;;;;1999.90;999.90;;;10.00;99.90;;;;;;5031458;28;20093;-71
2023/12/24 01:43:57;;;;;;;1999.90;999.90;;;9.90;99.90;;;;;;5025916;28;20033;-71
2023/12/24 01:46:23;;;;;;;1999.90;999.90;;;10.00;99.90;;;;;;5024501;28;20034;-74
2023/12/24 01:48:50;;;;;;;1999.90;999.90;;;9.90;99.90;;;;;;5026054;28;20025;-72
2023/12/24 01:51:20;;;;;;;1999.90;999.90;;;10.00;99.90;;;;;;5020815;28;20034;-71
2023/12/24 01:53:48;;;;;;;1999.90;999.90;;;9.90;99.90;;;;;;5029853;28;20029;-72
2023/12/24 01:56:15;;;;;;;1999.90;999.90;;;10.00;99.90;;;;;;5021095;28;20069;-71
2023/12/24 01:58:41;;;;;;;1999.90;999.90;;;10.00;99.90;;;;;;5024246;28;20382;-71
2023/12/24 02:01:07;;;;;;;1999.90;999.90;;;10.00;99.90;;;;;;5023965;28;20101;-71
2023/12/24 02:03:34;;;;;;;1999.90;999.90;;;10.00;99.90;;;;;;5024481;28;20647;-71
2023/12/24 02:06:02;;;;;;;1999.90;999.90;;;10.00;99.90;;;;;;5023210;28;20044;-72
2023/12/24 02:08:28;;;;;;;1999.90;999.90;;;10.00;99.90;;;;;;5023477;28;20041;-71
2023/12/24 02:10:54;;;;;;;1999.90;999.90;;;10.00;99.90;;;;;;5023216;28;20033;-71
2023/12/24 02:13:20;;;;;;;1999.90;999.90;;;10.00;99.90;;;;;;5024581;28;20033;-72
2023/12/24 02:15:51;;;;;;;1999.90;999.90;;;10.00;99.90;;;;;;5026632;28;20025;-71
2023/12/24 02:18:17;;;;;;;1999.90;999.90;;;10.00;99.90;;;;;;5025119;28;20057;-72
2023/12/24 02:20:43;;;;;;;1999.90;999.90;;;10.00;99.90;;;;;;5023652;28;20094;-71
2023/12/24 02:23:08;;;;;;;1999.90;999.90;;;10.00;99.90;;;;;;5021961;28;20395;-71
2023/12/24 02:25:34;;;;;;;1999.90;999.90;;;10.00;99.90;;;;;;5021973;28;20101;-71
2023/12/24 02:28:19;;;;;;;1999.90;999.90;;;10.10;99.90;;;;;;5030624;28;20018;-74
2023/12/24 02:30:50;;;;;;;1999.90;999.90;;;10.00;99.90;;;;;;5028703;28;20044;-71
2023/12/24 02:33:17;;;;;;;1999.90;999.90;;;10.00;99.90;;;;;;5022875;28;20026;-71
2023/12/24 02:35:46;;;;;;;1999.90;999.90;;;10.10;99.90;;;;;;5021373;28;20040;-71
2023/12/24 02:38:11;;;;;;;1999.90;999.90;;;10.10;99.90;;;;;;5020221;28;20068;-71
2023/12/24 02:40:37;;;;;;;1999.90;999.90;;;10.10;99.90;;;;;;5026123;28;20633;-71
2023/12/24 02:43:03;;;;;;;1999.90;999.90;;;10.10;99.90;;;;;;5031082;28;20056;-73
2023/12/24 02:45:28;;;;;;;1999.90;999.90;;;10.10;99.90;;;;;;5023759;28;20032;-71
2023/12/24 02:47:54;;;;;;;1999.90;999.90;;;10.10;99.90;;;;;;5037907;28;20440;-72
2023/12/24 02:50:20;;;;;;;1999.90;999.90;;;10.20;99.90;;;;;;5031784;28;20324;-72
2023/12/24 02:52:46;;;;;;;1999.90;999.90;;;10.20;99.90;;;;;;5034482;28;20022;-71
2023/12/24 02:55:12;;;;;;;1999.90;999.90;;;10.20;99.90;;;;;;5033455;28;20043;-71
2023/12/24 02:57:38;;;;;;;1999.90;999.90;;;10.20;99.90;;;;;;5028059;28;20095;-71
2023/12/24 03:00:05;;;;;;;1999.90;999.90;;;10.20;99.90;;;;;;5031954;28;20685;-71
2023/12/24 03:02:32;;;;;;;1999.90;999.90;;;10.20;99.90;;;;;;5027326;28;20030;-71
2023/12/24 03:04:58;;;;;;;1999.90;999.90;;;10.20;99.90;;;;;;5026231;28;20029;-72
2023/12/24 03:07:24;;;;;;;1999.90;999.90;;;10.20;99.90;;;;;;5032136;28;20083;-72
2023/12/24 03:09:49;;;;;;;1999.90;999.90;;;10.20;99.90;;;;;;5028686;28;20030;-72
2023/12/24 03:12:17;;;;;;;1999.90;999.90;;;10.20;99.90;;;;;;5027391;28;20097;-72
2023/12/24 03:14:43;;;;;;;1999.90;999.90;;;10.20;99.90;;;;;;5033072;28;20025;-71
2023/12/24 03:17:08;;;;;;;1999.90;999.90;;;10.20;99.90;;;;;;5032586;28;20018;-72
2023/12/24 03:19:34;;;;;;;1999.90;999.90;;;10.30;99.90;;;;;;5032719;28;20537;-72
2023/12/24 03:22:00;;;;;;;1999.90;999.90;;;10.20;99.90;;;;;;5032477;28;20018;-71
2023/12/24 03:24:25;;;;;;;1999.90;999.90;;;10.20;99.90;;;;;;5032964;28;20412;-71
2023/12/24 03:26:51;;;;;;;1999.90;999.90;;;10.30;99.90;;;;;;5032266;28;20061;-72
2023/12/24 03:29:17;;;;;;;1999.90;999.90;;;10.30;99.90;;;;;;5032982;28;20336;-73
2023/12/24 03:31:42;;;;;;;1999.90;999.90;;;10.30;99.90;;;;;;5032667;28;20048;-72
2023/12/24 03:34:08;;;;;;;1999.90;999.90;;;10.30;99.90;;;;;;5029008;28;20329;-71
2023/12/24 03:36:34;;;;;;;1999.90;999.90;;;10.30;99.90;;;;;;5035464;28;20091;-71
2023/12/24 03:39:00;;;;;;;1999.90;999.90;;;10.30;99.90;;;;;;5034435;28;20028;-72
2023/12/24 03:41:26;;;;;;;1999.90;999.90;;;10.30;99.90;;;;;;5036499;28;20042;-71
2023/12/24 03:43:51;;;;;;;1999.90;999.90;;;10.40;99.90;;;;;;5036834;28;20340;-71
2023/12/24 03:46:19;;;;;;;1999.90;999.90;;;10.40;99.90;;;;;;5030483;28;20102;-71
2023/12/24 03:48:44;;;;;;;1999.90;999.90;;;10.40;99.90;;;;;;5034731;28;20037;-72
2023/12/24 03:51:11;;;;;;;1999.90;999.90;;;10.40;99.90;;;;;;5034870;28;20045;-71
2023/12/24 03:53:37;;;;;;;1999.90;999.90;;;10.40;99.90;;;;;;5032222;28;20107;-71
2023/12/24 03:56:08;;;;;;;1999.90;999.90;;;10.40;99.90;;;;;;5037670;28;20088;-71
2023/12/24 03:58:34;;;;;;;1999.90;999.90;;;10.40;99.90;;;;;;5035813;28;20017;-71
2023/12/24 04:01:00;;;;;;;1999.90;999.90;;;10.50;99.90;;;;;;5035685;28;20024;-71
2023/12/24 04:03:25;;;;;;;1999.90;999.90;;;10.50;99.90;;;;;;5033704;28;20033;-71
2023/12/24 04:05:51;;;;;;;1999.90;999.90;;;10.50;99.90;;;;;;5032493;28;20026;-72
2023/12/24 04:08:17;;;;;;;1999.90;999.90;;;10.50;99.90;;;;;;5035687;28;20064;-71
2023/12/24 04:10:43;;;;;;;1999.90;999.90;;;10.50;99.90;;;;;;5035970;28;20432;-71
2023/12/24 04:13:09;;;;;;;1999.90;999.90;;;10.60;99.90;;;;;;5035750;28;20025;-74
2023/12/24 04:15:34;;;;;;;1999.90;999.90;;;10.60;99.90;;;;;;5036176;28;20640;-71
2023/12/24 04:18:01;;;;;;;1999.90;999.90;;;10.60;99.90;;;;;;5033668;28;20036;-71
2023/12/24 04:20:27;;;;;;;1999.90;999.90;;;10.70;99.90;;;;;;5031245;28;20082;-72
2023/12/24 04:22:53;;;;;;;1999.90;999.90;;;10.70;99.90;;;;;;5034726;28;20061;-71
2023/12/24 04:25:19;;;;;;;1999.90;999.90;;;10.70;99.90;;;;;;5035490;28;20025;-71
2023/12/24 04:27:44;;;;;;;1999.90;999.90;;;10.70;99.90;;;;;;5035691;28;20116;-71
2023/12/24 04:30:10;;;;;;;1999.90;999.90;;;10.70;99.90;;;;;;5035217;28;20060;-74
2023/12/24 04:32:36;;;;;;;1999.90;999.90;;;10.80;99.90;;;;;;5035532;28;20095;-71
2023/12/24 04:35:02;;;;;;;1999.90;999.90;;;10.80;99.90;;;;;;5033804;28;20420;-71
2023/12/24 04:37:28;;;;;;;1999.90;999.90;;;10.80;99.90;;;;;;5033095;28;20062;-71
2023/12/24 04:39:54;;;;;;;1999.90;999.90;;;10.80;99.90;;;;;;5034277;28;20021;-72
2023/12/24 04:42:19;;;;;;;1999.90;999.90;;;10.80;99.90;;;;;;5034123;28;20046;-71
2023/12/24 04:44:46;;;;;;;;;;;10.80;99.90;;;;;;5034805;28;20049;-71
2023/12/24 04:47:12;;;;;;;1999.90;999.90;;;10.80;99.90;;;;;;5033540;28;19936;-71
2023/12/24 04:49:38;;;;;;;1999.90;999.90;;;10.80;99.90;;;;;;5035139;28;20037;-71
2023/12/24 04:52:04;;;;;;;1999.90;999.90;;;10.80;99.90;;;;;;5033663;28;20033;-71
2023/12/24 04:54:30;;;;;;;1999.90;999.90;;;10.80;99.90;;;;;;5033411;28;20045;-72
2023/12/24 04:56:56;;;;;;;1999.90;999.90;;;10.90;99.90;;;;;;5034841;28;20032;-72
2023/12/24 04:59:21;;;;;;;1999.90;999.90;;;10.90;99.90;;;;;;5034810;28;20507;-72
2023/12/24 05:01:50;;;;;;;1999.90;999.90;;;10.90;99.90;;;;;;5034804;28;20099;-72
2023/12/24 05:04:16;;;;;;;1999.90;999.90;;;10.90;99.90;;;;;;5034022;28;20030;-71
2023/12/24 05:06:42;;;;;;;1999.90;999.90;;;10.90;99.90;;;;;;5030133;28;20048;-71
2023/12/24 05:09:07;;;;;;;1999.90;999.90;;;11.00;99.90;;;;;;5033875;28;20032;-71
2023/12/24 05:11:33;;;;;;;1999.90;999.90;;;11.00;99.90;;;;;;5034239;28;20084;-71
2023/12/24 05:14:00;;;;;;;1999.90;999.90;;;11.00;99.90;;;;;;5034589;28;20447;-71
2023/12/24 05:16:26;;;;;;;1999.90;999.90;;;11.00;99.90;;;;;;5034303;28;20025;-71
2023/12/24 05:18:51;;;;;;;1999.90;999.90;;;11.00;99.90;;;;;;5031541;28;20026;-71
2023/12/24 05:21:17;;;;;;;1999.90;999.90;;;11.00;99.90;;;;;;5034468;28;20025;-71
2023/12/24 05:23:43;;;;;;;1999.90;999.90;;;11.00;99.90;;;;;;5033946;28;20033;-71
2023/12/24 05:26:09;;;;;;;1999.90;999.90;;;11.00;99.90;;;;;;5033273;28;20052;-71
2023/12/24 05:28:34;;;;;;;1999.90;999.90;;;11.10;99.90;;;;;;5034206;28;20033;-72
2023/12/24 05:31:00;;;;;;;1999.90;999.90;;;11.10;99.90;;;;;;5033914;28;20025;-71
2023/12/24 05:33:26;;;;;;;1999.90;999.90;;;11.10;99.90;;;;;;5032591;28;20034;-71
2023/12/24 05:35:51;;;;;;;1999.90;999.90;;;11.10;99.90;;;;;;5033477;28;20033;-71
2023/12/24 05:38:19;;;;;;;1999.90;999.90;;;11.10;99.90;;;;;;5034188;28;20069;-72
2023/12/24 05:40:45;;;;;;;1999.90;999.90;;;11.10;99.90;;;;;;5033319;28;20044;-72
2023/12/24 05:43:10;;;;;;;1999.90;999.90;;;11.10;99.90;;;;;;5034279;28;20514;-72
2023/12/24 05:45:36;;;;;;;1999.90;999.90;;;11.20;99.90;;;;;;5032620;28;20030;-72
2023/12/24 05:48:02;;;;;;;1999.90;999.90;;;11.20;99.90;;;;;;5033997;28;20112;-72
2023/12/24 05:50:28;;;;;;;1999.90;999.90;;;11.20;99.90;;;;;;5033786;28;20025;-72
2023/12/24 05:52:53;;;;;;;1999.90;999.90;;;11.20;99.90;;;;;;5033969;28;20025;-72
2023/12/24 05:55:19;;;;;;;1999.90;999.90;;;11.20;99.90;;;;;;5033864;28;20029;-72
2023/12/24 05:57:45;;;;;;;1999.90;999.90;;;11.20;99.90;;;;;;5033401;28;20018;-72
2023/12/24 06:00:11;;;;;;;1999.90;999.90;;;11.20;99.90;;;;;;5032772;28;20041;-72
2023/12/24 06:02:37;;;;;;;1999.90;999.90;;;11.20;99.90;;;;;;5033269;28;20028;-72
2023/12/24 06:05:03;;;;;;;1999.90;999.90;;;11.20;99.90;;;;;;5027722;28;20038;-72
2023/12/24 06:07:29;;;;;;;1999.90;999.90;;;11.20;99.90;;;;;;5031951;28;20025;-72
2023/12/24 06:09:55;;;;;;;1999.90;999.90;;;11.20;99.90;;;;;;5030779;28;20037;-71
2023/12/24 06:12:20;;;;;;;1999.90;999.90;;;11.20;99.90;;;;;;5026326;28;20040;-71
2023/12/24 06:14:46;;;;;;;1999.90;999.90;;;11.20;99.90;;;;;;5030694;28;20026;-72
2023/12/24 06:17:12;;;;;;;1999.90;999.90;;;11.30;99.90;;;;;;5034047;28;20112;-71
2023/12/24 06:19:37;;;;;;;1999.90;999.90;;;11.20;99.90;;;;;;5033604;28;20379;-71
2023/12/24 06:22:03;;;;;;;1999.90;999.90;;;11.20;99.90;;;;;;5032743;28;20360;-71
2023/12/24 06:24:30;;;;;;;1999.90;999.90;;;11.30;99.90;;;;;;5032377;28;20351;-72
2023/12/24 06:26:56;;;;;;;1999.90;999.90;;;11.20;99.90;;;;;;5033575;28;20029;-72
2023/12/24 06:29:22;;;;;;;1999.90;999.90;;;11.20;99.90;;;;;;5024681;28;20075;-71
2023/12/24 06:31:48;;;;;;;1999.90;999.90;;;11.30;99.90;;;;;;5030242;28;20116;-71
2023/12/24 06:34:14;;;;;;;1999.90;999.90;;;11.30;99.90;;;;;;5029734;28;20037;-71
2023/12/24 06:36:39;;;;;;;1999.90;999.90;;;11.30;99.90;;;;;;5027180;28;20018;-72
2023/12/24 06:39:05;;;;;;;1999.90;999.90;;;11.30;99.90;;;;;;5033775;28;20072;-72
2023/12/24 06:41:31;;;;;;;1999.90;999.90;;;11.30;99.90;;;;;;5028963;28;20057;-75
2023/12/24 06:43:57;;;;;;;1999.90;999.90;;;11.40;99.90;;;;;;5024584;28;20030;-72
2023/12/24 06:46:24;;;;;;;1999.90;999.90;;;11.40;99.90;;;;;;5031093;28;20098;-71
2023/12/24 06:48:51;;;;;;;1999.90;999.90;;;11.50;99.90;;;;;;5033300;28;20447;-71
2023/12/24 06:51:17;;;;;;;1999.90;999.90;;;11.40;99.90;;;;;;5031441;28;20480;-72
2023/12/24 06:53:43;;;;;;;1999.90;999.90;;;11.40;99.90;;;;;;5032821;28;20048;-71
2023/12/24 06:56:08;;;;;;;1999.90;999.90;;;11.40;99.90;;;;;;5030112;28;20095;-71
2023/12/24 06:58:34;;;;;;;1999.90;999.90;;;11.40;99.90;;;;;;5030785;28;20021;-72
2023/12/24 07:01:00;;;;;;;1999.90;999.90;;;11.50;99.90;;;;;;5038892;28;20320;-72
2023/12/24 07:03:25;;;;;;;1999.90;999.90;;;11.50;99.90;;;;;;5029914;28;20037;-71
2023/12/24 07:05:51;;;;;;;1999.90;999.90;;;11.50;99.90;;;;;;5035010;28;20365;-72
2023/12/24 07:08:17;;;;;;;1999.90;999.90;;;11.50;99.90;;;;;;5032480;28;20025;-72
2023/12/24 07:10:43;;;;;;;1999.90;999.90;;;11.50;99.90;;;;;;5032355;28;20040;-72
2023/12/24 07:13:09;;;;;;;1999.90;999.90;;;11.60;99.90;;;;;;5028057;28;20025;-72
2023/12/24 07:15:39;;;;;;;1999.90;999.90;;;11.50;99.90;;;;;;5033126;28;20040;-72
2023/12/24 07:18:05;;;;;;;1999.90;999.90;;;11.50;99.90;;;;;;5032247;28;20360;-71
2023/12/24 07:20:31;;;;;;;1999.90;999.90;;;11.60;99.90;;;;;;5033069;28;20014;-72
2023/12/24 07:22:57;;;;;;;1999.90;999.90;;;11.60;99.90;;;;;;5031469;28;20428;-72
2023/12/24 07:25:23;;;;;;;1999.90;999.90;;;11.60;99.90;;;;;;5032121;28;20080;-71
2023/12/24 07:27:49;;;;;;;1999.90;999.90;;;11.60;99.90;;;;;;5033004;28;20424;-72
2023/12/24 07:30:14;;;;;;;1999.90;999.90;;;11.60;99.90;;;;;;5030858;28;20072;-71
2023/12/24 07:32:44;;;;;;;1999.90;999.90;;;11.60;99.90;;;;;;5032621;28;20029;-71
2023/12/24 07:35:10;;;;;;;1999.90;999.90;;;11.60;99.90;;;;;;5032095;28;20043;-72
2023/12/24 07:37:36;;;;;;;1999.90;999.90;;;11.60;99.90;;;;;;5032437;28;20138;-71
2023/12/24 07:40:02;;;;;;;1999.90;999.90;;;11.60;99.90;;;;;;5031625;28;20081;-71
2023/12/24 07:42:28;;;;;;;1999.90;999.90;;;11.70;99.90;;;;;;5031547;28;20112;-72
2023/12/24 07:44:53;;;;;;;1999.90;999.90;;;11.70;99.90;;;;;;5030505;28;20127;-71
2023/12/24 07:47:19;;;;;;;1999.90;999.90;;;11.80;99.90;;;;;;5029786;28;20030;-71
2023/12/24 07:49:45;;;;;;;1999.90;999.90;;;11.70;99.90;;;;;;5031015;28;20053;-71
2023/12/24 07:52:11;;;;;;;1999.90;999.90;;;11.80;99.90;;;;;;5032228;28;20064;-72
2023/12/24 07:54:36;;;;;;;1999.90;999.90;;;11.80;99.90;;;;;;5031683;28;20111;-74
2023/12/24 07:57:02;;;;;;;1999.90;999.90;;;11.80;99.90;;;;;;5032529;28;20329;-71
2023/12/24 07:59:28;;;;;;;1999.90;999.90;;;11.80;99.90;;;;;;5032013;28;20045;-74
2023/12/24 08:01:53;;;;;;;1999.90;999.90;;;11.80;99.90;;;;;;5029470;28;20030;-71
2023/12/24 08:04:19;;;;;;;1999.90;999.90;;;11.80;99.90;;;;;;5025342;28;20076;-71
2023/12/24 08:06:45;;;;;;;1999.90;999.90;;;11.80;99.90;;;;;;5026988;28;20435;-71
2023/12/24 08:09:11;;;;;;;1999.90;999.90;;;11.90;99.90;;;;;;5032685;28;20037;-71
2023/12/24 08:11:37;;;;;;;1999.90;999.90;;;11.80;99.90;;;;;;5029550;28;20140;-71
2023/12/24 08:14:04;;;;;;;1999.90;999.90;;;11.90;99.90;;;;;;5028657;28;20034;-71
2023/12/24 08:16:32;;;;;;;;;;;11.90;99.90;;;;;;5032239;28;20105;-75
2023/12/24 08:18:58;;;;;;;1999.90;999.90;;;12.00;99.90;;;;;;5033694;28;19920;-71
2023/12/24 08:21:24;;;;;;;1999.90;999.90;;;11.90;99.90;;;;;;5025756;28;20025;-71
2023/12/24 08:23:50;;;;;;;1999.90;999.90;;;11.90;99.90;;;;;;5034972;28;20033;-71
2023/12/24 08:26:18;;;;;;;1999.90;999.90;;;11.90;99.90;;;;;;5033542;28;20108;-71
2023/12/24 08:28:44;;;;;;;1999.90;999.90;;;11.90;99.90;;;;;;5032558;28;20029;-71
2023/12/24 08:31:10;;;;;;;1999.90;999.90;;;11.90;99.90;;;;;;5031001;28;20029;-71
2023/12/24 08:33:36;;;;;;;1999.90;999.90;;;11.90;99.90;;;;;;5038299;28;21150;-72
2023/12/24 08:36:02;;;;;;;1999.90;999.90;;;11.90;99.90;;;;;;5035994;28;20083;-71
2023/12/24 08:38:28;;;;;;;1999.90;999.90;;;11.90;99.90;;;;;;5043433;28;20057;-72
2023/12/24 08:40:54;;;;;;;1999.90;999.90;;;12.00;99.90;;;;;;5044507;28;20099;-71
2023/12/24 08:43:19;;;;;;;1999.90;999.90;;;11.90;99.90;;;;;;5037418;28;20029;-71
2023/12/24 08:45:45;;;;;;;1999.90;999.90;;;12.00;99.90;;;;;;5036758;28;20025;-71
2023/12/24 08:48:10;;;;;;;1999.90;999.90;;;12.00;99.90;;;;;;5035883;28;20032;-71
2023/12/24 08:50:36;;;;;;;1999.90;999.90;;;12.00;99.90;;;;;;5036657;28;20091;-72
2023/12/24 08:53:03;;;;;;;1999.90;999.90;;;12.00;99.90;;;;;;5036697;28;20029;-71
2023/12/24 08:55:29;;;;;;;1999.90;999.90;;;12.00;99.90;;;;;;5032533;28;20123;-71
2023/12/24 08:57:55;;;;;;;1999.90;999.90;;;12.00;99.90;;;;;;5040432;28;20400;-71
2023/12/24 09:00:20;;;;;;;1999.90;999.90;;;12.00;99.90;;;;;;5031902;28;20024;-71
2023/12/24 09:02:47;;;;;;;1999.90;999.90;;;12.00;99.90;;;;;;5033225;28;20072;-71
2023/12/24 09:05:13;;;;;;;1999.90;999.90;;;12.00;99.90;;;;;;5040731;28;20056;-71
2023/12/24 09:07:38;;;;;;;1999.90;999.90;;;12.10;99.90;;;;;;5031593;28;20021;-71
2023/12/24 09:10:04;;;;;;;1999.90;999.90;;;12.10;99.90;;;;;;5033689;28;20029;-71
2023/12/24 09:12:30;;;;;;;1999.90;999.90;;;12.10;99.90;;;;;;5035614;28;20516;-71
2023/12/24 09:14:56;;;;;;;1999.90;999.90;;;12.10;99.90;;;;;;5026910;28;20275;-71
2023/12/24 09:17:21;;;;;;;1999.90;999.90;;;12.10;99.90;;;;;;5036627;28;20029;-72
2023/12/24 09:19:47;;;;;;;1999.90;999.90;;;12.10;99.90;;;;;;5029863;28;20025;-71
2023/12/24 09:22:13;;;;;;;1999.90;999.90;;;12.10;99.90;;;;;;5034558;28;20330;-71
2023/12/24 09:24:38;;;;;;;1999.90;999.90;;;12.20;99.90;;;;;;5035702;28;20036;-71
2023/12/24 09:27:04;;;;;;;1999.90;999.90;;;12.20;99.90;;;;;;5035595;28;20383;-71
2023/12/24 09:29:30;;;;;;;1999.90;999.90;;;12.20;99.90;;;;;;5029777;28;20040;-73
2023/12/24 09:31:56;;;;;;;1999.90;999.90;;;12.20;99.90;;;;;;5028693;28;20026;-71
2023/12/24 09:34:22;;;;;;;1999.90;999.90;;;12.20;99.90;;;;;;5029609;28;20036;-71
2023/12/24 09:36:47;;;;;;;1999.90;999.90;;;12.20;99.90;;;;;;5030718;28;20026;-71
2023/12/24 09:39:13;;;;;;;1999.90;999.90;;;12.20;99.90;;;;;;5030417;28;20029;-71
2023/12/24 09:41:39;;;;;;;1999.90;999.90;;;12.20;99.90;;;;;;5029380;28;20044;-72
2023/12/24 09:44:07;;;;;;;1999.90;999.90;;;12.30;99.90;;;;;;5031490;28;20040;-71
2023/12/24 09:46:33;;;;;;;1999.90;999.90;;;12.30;99.90;;;;;;5032569;28;20706;-71
2023/12/24 09:48:59;;;;;;;1999.90;999.90;;;12.30;99.90;;;;;;5033043;28;20064;-71
2023/12/24 09:51:25;;;;;;;1999.90;999.90;;;12.30;99.90;;;;;;5030977;28;20103;-71
2023/12/24 09:53:52;;;;;;;;;;;12.30;99.90;;;;;;5028754;28;20047;-71
2023/12/24 09:56:18;;;;;;;1999.90;999.90;;;12.30;99.90;;;;;;5031760;28;19913;-71
2023/12/24 09:58:46;;;;;;;1999.90;999.90;;;12.30;99.90;;;;;;5037380;28;20313;-71
2023/12/24 10:01:11;;;;;;;1999.90;999.90;;;12.30;99.90;;;;;;5039162;28;20032;-71
2023/12/24 10:03:37;;;;;;;1999.90;999.90;;;12.30;99.90;;;;;;5032669;28;20025;-72
2023/12/24 10:06:09;;;;;;;1999.90;999.90;;;12.40;99.90;;;;;;5033321;28;20561;-71
2023/12/24 10:08:36;;;;;;;1999.90;999.90;;;12.40;99.90;;;;;;5030824;28;20034;-71
2023/12/24 10:11:33;;;;;;;1999.90;999.90;;;12.40;99.90;;;;;;5033490;28;20021;-73
2023/12/24 10:14:00;;;;;;;1999.90;999.90;;;12.40;99.90;;;;;;5030947;28;20107;-72
2023/12/24 10:16:27;;;;;;;1999.90;999.90;;;12.50;99.90;;;;;;5033111;28;20427;-71
2023/12/24 10:18:55;;;;;;;1999.90;999.90;;;12.40;99.90;;;;;;5029370;28;20162;-71
2023/12/24 10:21:21;;;;;;;1999.90;999.90;;;12.50;99.90;;;;;;5034114;28;20101;-72
2023/12/24 10:23:47;;;;;;;1999.90;999.90;;;12.50;99.90;;;;;;5033128;28;20056;-72
2023/12/24 10:26:12;;;;;;;1999.90;999.90;;;12.40;99.90;;;;;;5041746;28;20434;-72
2023/12/24 10:28:49;;;;;;;1999.90;999.90;;;12.40;99.90;;;;;;5037985;28;20022;-71
2023/12/24 10:31:15;;;;;;;1999.90;999.90;;;12.40;99.90;;;;;;5032153;28;20029;-72
2023/12/24 10:33:42;;;;;;;1999.90;999.90;;;12.40;99.90;;;;;;5026555;28;20440;-72
2023/12/24 10:36:08;;;;;;;1999.90;999.90;;;12.40;99.90;;;;;;5034611;28;20026;-72
2023/12/24 10:38:36;;;;;;;1999.90;999.90;;;12.40;99.90;;;;;;5028582;28;20018;-72
2023/12/24 10:41:02;;;;;;;1999.90;999.90;;;12.40;99.90;;;;;;5032767;28;20036;-71
2023/12/24 10:43:28;;;;;;;1999.90;999.90;;;12.40;99.90;;;;;;5028387;28;20053;-71
2023/12/24 10:45:55;;;;;;;1999.90;999.90;;;12.30;99.90;;;;;;5029485;28;20036;-74
2023/12/24 10:48:21;;;;;;;;;;;12.30;99.90;;;;;;5025293;28;20032;-73
2023/12/24 10:50:47;;;;;;;1999.90;999.90;;;12.30;99.90;;;;;;5018644;28;19960;-72
2023/12/24 10:53:13;;;;;;;1999.90;999.90;;;12.40;99.90;;;;;;5030245;28;20037;-76
2023/12/24 10:55:41;;;;;;;1999.90;999.90;;;12.30;99.90;;;;;;5022356;28;20032;-72
2023/12/24 10:58:13;;;;;;;1999.90;999.90;;;12.30;99.90;;;;;;5026649;28;20128;-72
2023/12/24 11:00:38;;;;;;;1999.90;999.90;;;12.30;99.90;;;;;;5026378;28;20029;-72
2023/12/24 11:03:04;;;;;;;1999.90;999.90;;;12.40;99.90;;;;;;5028692;28;20482;-72
2023/12/24 11:05:46;;;;;;;1999.90;999.90;;;12.40;99.90;;;;;;5029358;28;20112;-72
2023/12/24 11:08:21;;;;;;;1999.90;999.90;;;12.40;99.90;;;;;;5029730;28;20466;-78
2023/12/24 11:11:03;;;;;;;1999.90;999.90;;;12.40;99.90;;;;;;5027822;28;20329;-72
2023/12/24 11:13:32;;;;;;;1999.90;999.90;;;12.40;99.90;;;;;;5030874;28;20318;-72
2023/12/24 11:15:59;;;;;;;1999.90;999.90;;;12.40;99.90;;;;;;5031888;28;20033;-72
2023/12/24 11:18:49;;;;;;;1999.90;999.90;;;12.40;99.90;;;;;;5030991;28;20026;-72
2023/12/24 11:21:18;;;;;;;1999.90;999.90;;;12.40;99.90;;;;;;5031295;28;20041;-72
2023/12/24 11:24:12;;;;;;;1999.90;999.90;;;12.40;99.90;;;;;;5030050;28;20037;-72
2023/12/24 11:26:47;;;;;;;1999.90;999.90;;;12.40;99.90;;;;;;5029461;28;20033;-71
2023/12/24 11:29:38;;;;;;;1999.90;999.90;;;12.30;99.90;;;;;;5031856;28;20061;-71
2023/12/24 11:32:25;;;;;;;1999.90;999.90;;;12.40;99.90;;;;;;5034021;28;20033;-72
2023/12/24 11:34:55;;;;;;;1999.90;999.90;;;12.30;99.90;;;;;;5028303;28;20029;-71
2023/12/24 11:37:28;;;;;;;1999.90;999.90;;;12.40;99.90;;;;;;5029745;28;20028;-72
2023/12/24 11:40:05;;;;;;;1999.90;999.90;;;12.40;99.90;;;;;;5030151;28;20113;-72
2023/12/24 11:42:40;;;;;;;;;;;12.30;99.90;;;;;;5042050;28;20041;-71
2023/12/24 11:45:06;;;;;;;1999.90;999.90;;;12.40;99.90;;;;;;5031656;28;19909;-71
2023/12/24 11:47:32;;;;;;;;;;;12.40;99.90;;;;;;5031759;28;20052;-72
2023/12/24 11:49:59;;;;;;;1999.90;999.90;;;12.40;99.90;;;;;;5027402;28;20264;-71
2023/12/24 11:52:26;;;;;;;1999.90;999.90;;;12.40;99.90;;;;;;5028797;28;20274;-72
2023/12/24 11:54:52;;;;;;;1999.90;999.90;;;12.40;99.90;;;;;;5038072;28;20076;-71
2023/12/24 11:57:24;;;;;;;1999.90;999.90;;;12.40;99.90;;;;;;5043224;28;20047;-71
2023/12/24 11:59:50;;;;;;;1999.90;999.90;;;12.40;99.90;;;;;;5039088;28;20412;-72
2023/12/24 12:02:16;;;;;;;1999.90;999.90;;;12.40;99.90;;;;;;5039852;28;20036;-71